Kirchberg-Wetter.de


Hier erfahren Sie, wie das Wetter wird...


WebCam am Fuchsberg more information WebCam am Fuchsberg


Thunder radar more information blitzortung!


Rain radar more information rain snow radar


Besuchen Sie unsere anderen Wetter Stationen:

Template documentation
and downloads

And another site



Es ist keine erhöhte Aufmerksamkeit aufgrund des Wetters notwendig.    Es gibt keine Warnungen.

METAR-Meldungen aus der Umgebung

   
EHVK - Volkel Rnlafb, Netherlands
Entfernung von der Station bis: SW 18 km
Aktualisierung: 16-10-2021 16:55
Stark bewölkt  
Stark bewölkt  
   Wind: Süden 11.1 km/h
Wind: Süden 11.1 km/h
Temperatur: 13°C
Taupunkt: 3°C
Luftfeuchte: 51%
Luftdruck: 1021 hPa
Bewölkt: Stark bewölkt
Sichtbarkeit: More than 10 km
Bewölkung: Stark bewölkt 32000 ft
EHVK 161455Z AUTO 19006KT 140V220 9999 BKN320 13/03 Q1021 BLU
EDLV - Niederrhein, Germany
Entfernung von der Station bis: SO 25 km
Aktualisierung: 16-10-2021 16:50
Klar  
Klar  
   Wind: SSW 9.3 km/h
Wind: SSW 9.3 km/h
Temperatur: 12°C
Taupunkt: 4°C
Luftfeuchte: 58%
Luftdruck: 1021 hPa
Sichtbarkeit: More than 10 km
Bewölkung: Klar
EDLV 161450Z 21005KT CAVOK 12/04 Q1021
EHDL - Deelen Rnlafb, Netherlands
Entfernung von der Station bis: N 35 km
Aktualisierung: 16-10-2021 16:55
Stark bewölkt  
Stark bewölkt  
   Wind: SSW 13 km/h
Wind: SSW 13 km/h
Temperatur: 13°C
Taupunkt: 6°C
Luftfeuchte: 63%
Luftdruck: 1020 hPa
Bewölkt: Stark bewölkt
Sichtbarkeit: More than 10 km
Bewölkung: Stark bewölkt 34000 ft
EHDL 161455Z AUTO 21007KT 150V260 9999 BKN340 13/06 Q1020 BLU
EHEH - Eindhoven Rnlafb, Netherlands
Entfernung von der Station bis: SW 48 km
Aktualisierung: 16-10-2021 16:55
Bewölkt  
Bewölkt  
   Wind: Süden 9.3 km/h
Wind: Süden 9.3 km/h
Temperatur: 14°C
Taupunkt: 3°C
Luftfeuchte: 48%
Luftdruck: 1021 hPa
Bewölkt: Bewölkt
Sichtbarkeit: More than 10 km
Bewölkung: Bewölkt 33000 ft
EHEH 161455Z AUTO 19005KT 140V220 9999 OVC330 14/03 Q1021 BLU NOSIG
EHGR - Gilze-Rijen Rnla, Netherlands
Entfernung von der Station bis: WSW 70 km
Aktualisierung: 16-10-2021 16:55
Bewölkt  
Bewölkt  
   Wind: SSW 11.1 km/h
Wind: SSW 11.1 km/h
Temperatur: 14°C
Taupunkt: 3°C
Luftfeuchte: 48%
Luftdruck: 1021 hPa
Bewölkt: Bewölkt
Sichtbarkeit: More than 10 km
Bewölkung: Bewölkt 35000 ft
EHGR 161455Z AUTO 20006KT 130V210 9999 OVC350 14/03 Q1021 BLU
EBBL - Kleine-Brogel(Ba, Belgium
Entfernung von der Station bis: SSW 71 km
Aktualisierung: 16-10-2021 16:25
Bewölkt  
Bewölkt  
   Wind: NNO 7.4 km/h
Wind: NNO 7.4 km/h
Temperatur: 12°C
Taupunkt: 5°C
Luftfeuchte: 63%
Luftdruck: 1021 hPa
Bewölkt: Bewölkt
Sichtbarkeit: More than 10 km
Bewölkung: Bewölkt 5100 ft
EBBL 161425Z AUTO 02004KT 9999 OVC051/// 12/05 Q1021 BLU

Script entwickelt von  Saratoga-weather.org Angepasst für das Template von  Weerstation Leuven

Sie finden unser Wetter-Infos auch auf:

Weather Underground

WeatherlinkIP

Wetternetz-Sachsen

Von uns verwendete Ausrüstung:

Wetterstation
Davis Vantage Pro2 Plus

Wetterprogramm
Meteobridge

WetterComputer
TP-Link TL-MR3020

Davis Vantage Pro2 Plus

Meteobridge

TP-Link TL-MR3020